createdAt,value
2023-05-22T07:53:07.925Z,2.80
2023-05-22T07:55:35.043Z,2.55
2023-05-22T07:58:04.592Z,2.70
2023-05-22T08:00:31.408Z,2.80
2023-05-22T08:02:58.402Z,3.47
2023-05-22T08:05:25.347Z,3.33
2023-05-22T08:07:52.421Z,3.35
2023-05-22T08:10:19.426Z,3.03
2023-05-22T08:12:46.204Z,3.30
2023-05-22T08:15:13.486Z,3.20
2023-05-22T08:17:40.287Z,3.38
2023-05-22T08:20:09.494Z,2.65
2023-05-22T08:22:38.439Z,3.08
2023-05-22T08:25:05.566Z,3.35
2023-05-22T08:27:32.417Z,3.13
2023-05-22T08:29:59.419Z,2.47
2023-05-22T08:32:27.289Z,2.05
2023-05-22T08:34:55.313Z,2.55
2023-05-22T08:37:22.045Z,2.92
2023-05-22T08:39:48.966Z,2.75
2023-05-22T08:42:15.823Z,2.92
2023-05-22T08:44:42.689Z,2.22
2023-05-22T08:47:14.266Z,3.17
2023-05-22T08:49:41.497Z,3.00
2023-05-22T08:52:14.989Z,2.45
2023-05-22T08:54:44.860Z,2.45
2023-05-22T08:57:12.166Z,2.47
2023-05-22T08:59:39.871Z,2.72
2023-05-22T09:02:07.069Z,2.20
2023-05-22T09:04:34.920Z,2.50
2023-05-22T09:07:06.005Z,2.33
2023-05-22T09:09:37.139Z,2.20
2023-05-22T09:12:11.719Z,2.40
2023-05-22T09:14:40.440Z,2.30
2023-05-22T09:17:08.534Z,2.10
2023-05-22T09:19:35.479Z,2.20
2023-05-22T09:22:06.898Z,2.08
2023-05-22T09:24:42.498Z,2.25
2023-05-22T09:27:10.412Z,2.00
2023-05-22T09:29:51.270Z,2.80
2023-05-22T09:32:18.721Z,2.75
2023-05-22T09:34:47.077Z,2.88
2023-05-22T09:37:14.404Z,2.30
2023-05-22T09:39:45.091Z,2.13
2023-05-22T09:42:12.916Z,2.58
2023-05-22T09:44:40.042Z,2.17
2023-05-22T09:47:07.388Z,2.58
2023-05-22T09:49:43.923Z,2.10
2023-05-22T09:52:15.186Z,2.30
2023-05-22T09:54:55.472Z,2.50
2023-05-22T09:57:24.237Z,2.17
2023-05-22T09:59:58.713Z,2.55
2023-05-22T10:02:27.328Z,2.20
2023-05-22T10:04:55.059Z,2.35
2023-05-22T10:07:31.140Z,2.30
2023-05-22T10:10:02.324Z,2.38
2023-05-22T10:12:29.359Z,1.65
2023-05-22T10:14:56.232Z,2.00
2023-05-22T10:17:23.317Z,3.45
2023-05-22T10:19:50.289Z,3.17
2023-05-22T10:22:21.146Z,2.30
2023-05-22T10:24:48.591Z,2.28
2023-05-22T10:27:15.688Z,2.33
2023-05-22T10:30:08.883Z,2.20
2023-05-22T10:33:14.940Z,2.75
2023-05-22T10:35:57.349Z,2.13
2023-05-22T10:38:51.107Z,2.30
2023-05-22T10:41:18.716Z,3.00
2023-05-22T10:43:48.757Z,2.35
2023-05-22T10:46:15.860Z,2.17
2023-05-22T10:48:49.409Z,2.28
2023-05-22T10:51:22.842Z,2.45
2023-05-22T10:53:54.596Z,2.10
2023-05-22T10:56:25.158Z,2.55
2023-05-22T10:59:02.763Z,2.03
2023-05-22T11:01:29.802Z,2.00
2023-05-22T11:03:57.659Z,2.83
2023-05-22T11:06:37.005Z,2.83
2023-05-22T11:09:41.399Z,2.70
2023-05-22T11:12:28.545Z,2.75
2023-05-22T11:15:08.084Z,2.75
2023-05-22T11:17:46.396Z,2.42
2023-05-22T11:20:22.879Z,2.10
2023-05-22T11:23:00.932Z,2.08
2023-05-22T11:25:28.394Z,2.33
2023-05-22T11:27:56.523Z,2.38
2023-05-22T11:30:26.858Z,2.00
2023-05-22T11:32:53.792Z,2.13
2023-05-22T11:35:23.918Z,2.55
2023-05-22T11:37:51.751Z,2.53
2023-05-22T11:40:19.709Z,2.55
2023-05-22T11:42:46.816Z,2.80
2023-05-22T11:45:14.082Z,2.50
2023-05-22T11:47:40.955Z,2.25
2023-05-22T11:50:11.753Z,2.65
2023-05-22T11:52:41.189Z,2.50
2023-05-22T11:55:08.688Z,2.85
2023-05-22T11:57:35.879Z,2.80
2023-05-22T12:00:06.282Z,2.17
2023-05-22T12:02:33.323Z,2.28
2023-05-22T12:05:00.336Z,2.22
2023-05-22T12:07:30.315Z,2.30
2023-05-22T12:09:58.346Z,2.30
2023-05-22T12:12:25.346Z,2.38
2023-05-22T12:14:53.418Z,2.47
2023-05-22T12:17:20.449Z,3.22
2023-05-22T12:19:47.933Z,2.13
2023-05-22T12:22:14.911Z,2.30
2023-05-22T12:24:48.163Z,2.60
2023-05-22T12:27:15.118Z,2.00
2023-05-22T12:29:42.662Z,2.15
2023-05-22T12:32:13.501Z,2.20
2023-05-22T12:34:44.740Z,2.00
2023-05-22T12:37:38.041Z,1.80
2023-05-22T12:40:05.298Z,2.25
2023-05-22T12:42:32.081Z,2.50
2023-05-22T12:45:00.713Z,2.15
2023-05-22T12:47:27.597Z,2.08
2023-05-22T12:49:54.529Z,1.92
2023-05-22T12:52:21.295Z,2.10
2023-05-22T12:54:48.082Z,2.22
2023-05-22T12:57:16.826Z,2.20
2023-05-22T12:59:43.843Z,2.08
2023-05-22T13:02:10.759Z,2.67
2023-05-22T13:04:37.564Z,2.38
2023-05-22T13:07:04.554Z,2.50
2023-05-22T13:09:32.624Z,2.50
2023-05-22T13:12:00.138Z,2.40
2023-05-22T13:14:27.230Z,2.00
2023-05-22T13:16:54.348Z,2.08
2023-05-22T13:19:21.229Z,2.75
2023-05-22T13:21:48.064Z,3.00
2023-05-22T13:24:14.878Z,2.55
2023-05-22T13:26:41.881Z,3.00
2023-05-22T13:29:08.717Z,2.08
2023-05-22T13:31:38.001Z,2.35
2023-05-22T13:34:05.222Z,2.60
2023-05-22T13:36:32.323Z,1.92
2023-05-22T13:38:59.243Z,1.90
2023-05-22T13:41:26.135Z,2.10
2023-05-22T13:43:53.136Z,3.03
2023-05-22T13:46:21.373Z,3.00
2023-05-22T13:48:48.228Z,2.40
2023-05-22T13:51:15.139Z,2.20
2023-05-22T13:53:41.982Z,2.05
2023-05-22T13:56:08.793Z,1.92
2023-05-22T13:58:35.707Z,2.00
2023-05-22T14:01:02.562Z,2.15
2023-05-22T14:03:29.590Z,1.92
2023-05-22T14:05:56.575Z,2.17
2023-05-22T14:08:24.155Z,1.77
2023-05-22T14:10:50.932Z,2.00
2023-05-22T14:13:18.037Z,2.00
2023-05-22T14:15:47.075Z,2.10
2023-05-22T14:18:14.559Z,1.88
2023-05-22T14:20:41.539Z,2.30
2023-05-22T14:23:08.555Z,2.22
2023-05-22T14:25:35.545Z,2.42
2023-05-22T14:28:02.387Z,1.92
2023-05-22T14:30:29.165Z,2.05
2023-05-22T14:32:55.946Z,2.38
2023-05-22T14:35:22.798Z,2.33
2023-05-22T14:37:49.550Z,2.30
2023-05-22T14:40:16.360Z,2.25
2023-05-22T14:42:43.281Z,1.85
2023-05-22T14:45:10.381Z,2.20
2023-05-22T14:47:37.239Z,1.73
2023-05-22T14:50:18.154Z,1.95
2023-05-22T14:52:45.637Z,2.50
2023-05-22T14:55:12.392Z,2.83
2023-05-22T14:57:39.375Z,2.17
2023-05-22T15:00:08.719Z,2.53
2023-05-22T15:02:35.912Z,2.17
2023-05-22T15:05:02.777Z,2.30
2023-05-22T15:07:43.308Z,2.90
2023-05-22T15:10:12.278Z,1.90
2023-05-22T15:12:39.102Z,2.53
2023-05-22T15:15:06.387Z,2.30
2023-05-22T15:17:33.281Z,2.20
2023-05-22T15:20:00.117Z,2.38
2023-05-22T15:22:26.921Z,2.45
2023-05-22T15:25:07.734Z,2.10
2023-05-22T15:27:35.216Z,2.10
2023-05-22T15:30:02.683Z,1.85
2023-05-22T15:32:30.874Z,2.10
2023-05-22T15:34:57.719Z,1.77
2023-05-22T15:37:24.473Z,1.67
2023-05-22T15:39:51.211Z,1.90
2023-05-22T15:42:18.024Z,1.55
2023-05-22T15:44:44.853Z,1.77
2023-05-22T15:47:11.664Z,1.77
2023-05-22T15:49:38.351Z,2.20
2023-05-22T15:52:05.312Z,1.60
2023-05-22T15:54:32.097Z,1.98
2023-05-22T15:56:58.813Z,1.42
2023-05-22T15:59:25.566Z,1.67
2023-05-22T16:01:52.355Z,1.40
2023-05-22T16:04:19.212Z,1.55
2023-05-22T16:06:46.071Z,1.40
2023-05-22T16:09:12.853Z,2.45
2023-05-22T16:11:39.568Z,1.90
2023-05-22T16:14:06.514Z,1.80
2023-05-22T16:16:35.920Z,1.35
2023-05-22T16:19:03.075Z,1.50
2023-05-22T16:21:29.826Z,1.50
2023-05-22T16:23:58.238Z,1.90
2023-05-22T16:26:25.276Z,1.60
2023-05-22T16:28:52.065Z,1.75
2023-05-22T16:31:19.877Z,1.65
2023-05-22T16:33:46.762Z,1.65
2023-05-22T16:36:13.604Z,1.70
2023-05-22T16:38:40.346Z,1.30
2023-05-22T16:41:07.076Z,1.20
2023-05-22T16:43:33.825Z,1.98
2023-05-22T16:46:00.620Z,1.70
2023-05-22T16:48:27.451Z,1.88
2023-05-22T16:50:54.295Z,1.90
2023-05-22T16:53:22.665Z,1.90
2023-05-22T16:55:49.406Z,2.10
2023-05-22T16:58:16.154Z,1.80
2023-05-22T17:00:42.981Z,1.77
2023-05-22T17:03:11.708Z,2.10
2023-05-22T17:05:39.121Z,1.85
2023-05-22T17:08:06.562Z,1.83
2023-05-22T17:10:33.314Z,1.95
2023-05-22T17:13:00.070Z,1.98
2023-05-22T17:15:26.871Z,2.08
2023-05-22T17:17:53.784Z,1.98
2023-05-22T17:20:22.974Z,1.70
2023-05-22T17:22:50.054Z,2.47
2023-05-22T17:25:19.249Z,1.75
2023-05-22T17:27:46.525Z,2.10
2023-05-22T17:30:13.429Z,2.50
2023-05-22T17:32:40.232Z,2.25
2023-05-22T17:35:07.317Z,1.80
2023-05-22T17:37:34.318Z,1.60
2023-05-22T17:40:01.132Z,1.30
2023-05-22T17:42:28.152Z,2.13
2023-05-22T17:44:55.003Z,2.10
2023-05-22T17:47:22.035Z,2.05
2023-05-22T17:49:48.891Z,2.20
2023-05-22T17:52:15.740Z,1.77
2023-05-22T17:54:42.543Z,1.92
2023-05-22T17:57:09.414Z,1.75
2023-05-22T17:59:38.453Z,1.60
2023-05-22T18:02:06.857Z,1.50
2023-05-22T18:04:33.691Z,1.60
2023-05-22T18:07:00.519Z,1.75
2023-05-22T18:09:27.481Z,1.40
2023-05-22T18:11:54.451Z,1.75
2023-05-22T18:14:21.205Z,2.10
2023-05-22T18:16:51.020Z,2.40
2023-05-22T18:19:17.901Z,2.80
2023-05-22T18:21:44.699Z,3.22
2023-05-22T18:24:13.097Z,2.30
2023-05-22T18:26:39.802Z,1.83
2023-05-22T18:29:06.688Z,2.08
2023-05-22T18:31:33.549Z,1.70
2023-05-22T18:34:00.573Z,2.30
2023-05-22T18:36:27.462Z,2.47
2023-05-22T18:38:54.223Z,2.42
2023-05-22T18:41:21.987Z,2.42
2023-05-22T18:43:48.872Z,2.00
2023-05-22T18:46:15.744Z,1.48
2023-05-22T18:48:42.577Z,2.50
2023-05-22T18:51:09.431Z,1.83
2023-05-22T18:53:36.313Z,2.08
2023-05-22T18:56:03.253Z,1.85
2023-05-22T18:58:30.087Z,1.65
2023-05-22T19:00:56.986Z,1.42
2023-05-22T19:03:23.793Z,2.15
2023-05-22T19:05:50.714Z,3.75
2023-05-22T19:08:17.727Z,3.78
2023-05-22T19:10:44.608Z,5.00
2023-05-22T19:13:11.444Z,6.43
2023-05-22T19:15:38.508Z,7.65
2023-05-22T19:18:05.454Z,8.18
2023-05-22T19:20:32.644Z,5.10
2023-05-22T19:22:59.441Z,3.67
2023-05-22T19:25:26.217Z,3.03
2023-05-22T19:27:53.030Z,3.67
2023-05-22T19:30:21.857Z,2.55
2023-05-22T19:32:55.651Z,2.30
2023-05-22T19:35:22.780Z,2.35
2023-05-22T19:37:50.218Z,1.83
2023-05-22T19:40:17.129Z,2.15
2023-05-22T19:42:44.155Z,2.28
2023-05-22T19:45:11.220Z,2.17
2023-05-22T19:47:38.065Z,2.60
2023-05-22T19:50:05.439Z,2.55
2023-05-22T19:52:33.239Z,2.97
2023-05-22T19:55:00.208Z,2.35
2023-05-22T19:57:27.264Z,2.10
2023-05-22T19:59:55.845Z,2.15
2023-05-22T20:02:22.928Z,2.30
2023-05-22T20:04:49.836Z,2.30
2023-05-22T20:07:17.019Z,2.10
2023-05-22T20:09:43.930Z,2.50
2023-05-22T20:12:11.219Z,2.80
2023-05-22T20:14:39.439Z,2.70
2023-05-22T20:17:07.591Z,2.20
2023-05-22T20:19:35.784Z,2.20
2023-05-22T20:22:05.249Z,2.38
2023-05-22T20:24:33.532Z,2.50
2023-05-22T20:27:03.346Z,2.40
2023-05-22T20:29:31.233Z,2.80
2023-05-22T20:31:58.525Z,1.98
2023-05-22T20:34:26.844Z,2.65
2023-05-22T20:36:54.511Z,2.60
2023-05-22T20:39:22.411Z,3.05
2023-05-22T20:41:52.310Z,3.20
2023-05-22T20:44:21.961Z,2.72
2023-05-22T20:46:49.085Z,3.22
2023-05-22T20:49:21.233Z,3.10
2023-05-22T20:51:54.199Z,2.80
2023-05-22T20:54:21.538Z,2.70
2023-05-22T20:56:48.695Z,2.72
2023-05-22T20:59:15.956Z,2.90
2023-05-22T21:01:43.190Z,3.67
2023-05-22T21:04:10.329Z,3.40
2023-05-22T21:06:37.623Z,2.90
2023-05-22T21:09:04.457Z,2.70
2023-05-22T21:11:31.268Z,2.97
2023-05-22T21:13:58.069Z,3.63
2023-05-22T21:16:24.948Z,3.70
2023-05-22T21:18:51.758Z,3.42
2023-05-22T21:21:20.180Z,3.30
2023-05-22T21:23:48.027Z,2.85
2023-05-22T21:26:14.957Z,3.05
2023-05-22T21:28:42.810Z,3.05
2023-05-22T21:31:09.662Z,3.00
2023-05-22T21:33:36.437Z,3.38
2023-05-22T21:36:03.390Z,3.03
2023-05-22T21:38:30.595Z,3.15
2023-05-22T21:40:57.474Z,3.10
2023-05-22T21:43:24.513Z,2.90
2023-05-22T21:45:51.335Z,2.63
2023-05-22T21:48:18.048Z,3.20
2023-05-22T21:50:44.891Z,3.83
2023-05-22T21:53:12.508Z,3.20
2023-05-22T21:55:39.337Z,3.30
2023-05-22T21:58:06.032Z,3.50
2023-05-22T22:00:32.806Z,3.97
2023-05-22T22:02:59.633Z,4.03
2023-05-22T22:05:27.632Z,3.35
2023-05-22T22:07:54.391Z,3.22
2023-05-22T22:10:21.360Z,3.70
2023-05-22T22:12:48.407Z,3.30
2023-05-22T22:15:15.211Z,3.40
2023-05-22T22:17:42.163Z,3.47
2023-05-22T22:20:09.433Z,3.88
2023-05-22T22:22:36.266Z,3.25
2023-05-22T22:25:03.150Z,3.45
2023-05-22T22:27:29.899Z,3.17
2023-05-22T22:29:56.719Z,3.15
2023-05-22T22:32:23.606Z,3.28
2023-05-22T22:34:53.792Z,2.65
2023-05-22T22:37:21.640Z,3.17
2023-05-22T22:39:48.434Z,3.35
2023-05-22T22:42:15.279Z,3.17
2023-05-22T22:44:43.136Z,3.47
2023-05-22T22:47:10.334Z,3.15
2023-05-22T22:49:37.398Z,3.45
2023-05-22T22:52:04.692Z,3.38
2023-05-22T22:54:31.702Z,3.33
2023-05-22T22:56:58.677Z,3.10
2023-05-22T22:59:25.597Z,2.70
2023-05-22T23:01:52.432Z,2.70
2023-05-22T23:04:19.326Z,2.80
2023-05-22T23:06:46.172Z,3.03
2023-05-22T23:09:13.322Z,3.28
2023-05-22T23:11:40.088Z,3.47
2023-05-22T23:14:08.340Z,2.85
2023-05-22T23:16:36.324Z,2.83
2023-05-22T23:19:06.769Z,2.95
2023-05-22T23:21:33.767Z,2.75
2023-05-22T23:24:01.180Z,3.15
2023-05-22T23:26:28.292Z,2.70
2023-05-22T23:28:55.647Z,3.17
2023-05-22T23:31:26.264Z,3.17
2023-05-22T23:33:53.249Z,3.28
2023-05-22T23:36:20.104Z,3.65
2023-05-22T23:38:47.453Z,3.80
2023-05-22T23:41:15.044Z,3.53
2023-05-22T23:43:42.300Z,3.65
2023-05-22T23:46:09.418Z,3.35
2023-05-22T23:48:36.600Z,3.15
2023-05-22T23:51:05.206Z,3.85
2023-05-22T23:53:32.054Z,3.60
2023-05-22T23:55:59.208Z,3.88
2023-05-22T23:58:26.060Z,2.97
